Time;durP1;ratioP1;P1;durP2;ratioP2;P2;SDS_P1;SDS_P2;PMS_P1;PMS_P2;Temp;Humidity;BMP_temperature;BMP_pressure;BME280_temperature;BME280_humidity;BME280_pressure;Samples;Min_cycle;Max_cycle;Signal;HPM_P1;HPM_P2
2023/07/03 00:00:18;;;;;;;88.22;83.22;;;;;;;24.11;36.14;100907.13;5093752;28;20028;-71
2023/07/03 00:02:46;;;;;;;88.15;83.88;;;;;;;24.08;36.37;100905.03;5075255;28;20025;-72
2023/07/03 00:05:12;;;;;;;92.40;87.65;;;;;;;24.07;36.31;100905.41;5093612;28;20130;-72
2023/07/03 00:07:39;;;;;;;87.00;82.35;;;;;;;24.04;36.41;100898.59;5097179;28;20032;-72
2023/07/03 00:10:05;;;;;;;86.75;82.18;;;;;;;24.03;36.60;100896.94;5097203;28;20084;-73
2023/07/03 00:12:31;;;;;;;87.57;83.18;;;;;;;24.01;36.59;100895.66;5097160;28;20039;-71
2023/07/03 00:14:57;;;;;;;87.00;82.35;;;;;;;24.00;36.15;100894.06;5097041;28;20028;-71
2023/07/03 00:17:22;;;;;;;90.90;86.30;;;;;;;23.97;36.28;100890.81;5095858;28;20044;-71
2023/07/03 00:19:48;;;;;;;91.40;86.57;;;;;;;23.95;36.36;100906.88;5096962;28;20039;-70
2023/07/03 00:22:13;;;;;;;88.05;83.65;;;;;;;23.93;36.68;100906.38;5096964;28;20087;-73
2023/07/03 00:24:39;;;;;;;87.88;83.15;;;;;;;23.91;36.23;100907.84;5096868;28;20114;-71
2023/07/03 00:27:05;;;;;;;89.68;85.25;;;;;;;23.90;36.84;100901.53;5096322;28;20066;-72
2023/07/03 00:29:32;;;;;;;86.90;82.50;;;;;;;23.89;36.64;100904.63;5096144;28;20036;-71
2023/07/03 00:31:58;;;;;;;85.95;81.75;;;;;;;23.86;36.30;100900.56;5096050;28;20055;-71
2023/07/03 00:34:24;;;;;;;84.63;80.43;;;;;;;23.84;36.83;100902.03;5096781;28;20472;-71
2023/07/03 00:36:50;;;;;;;87.47;82.32;;;;;;;23.82;36.52;100898.81;5096894;28;20032;-72
2023/07/03 00:39:15;;;;;;;85.20;80.93;;;;;;;23.80;36.56;100892.81;5096627;28;20367;-71
2023/07/03 00:41:41;;;;;;;87.05;82.97;;;;;;;23.78;36.83;100895.09;5096564;28;20460;-71
2023/07/03 00:44:12;;;;;;;84.72;80.03;;;;;;;23.77;36.59;100896.22;5095346;28;20040;-71
2023/07/03 00:46:40;;;;;;;84.18;80.07;;;;;;;23.74;37.06;100892.19;5097121;28;20089;-74
2023/07/03 00:49:05;;;;;;;85.25;80.78;;;;;;;23.72;37.17;100892.50;5097263;28;20039;-71
2023/07/03 00:51:31;;;;;;;85.18;80.75;;;;;;;23.70;36.68;100891.19;5096661;28;20024;-71
2023/07/03 00:53:56;;;;;;;86.13;81.57;;;;;;;23.68;37.11;100893.44;5096074;28;20055;-71
2023/07/03 00:56:22;;;;;;;85.60;81.15;;;;;;;23.67;36.95;100891.84;5096031;28;20109;-70
2023/07/03 00:58:47;;;;;;;84.97;80.32;;;;;;;23.65;37.23;100885.84;5094970;28;20028;-71
2023/07/03 01:01:26;;;;;;;83.30;79.03;;;;;;;23.62;37.03;100892.00;5095048;28;20032;-72
2023/07/03 01:03:54;;;;;;;;;;;;;;;23.61;36.92;100890.38;5096636;28;20124;-72
2023/07/03 01:06:23;;;;;;;80.32;76.10;;;;;;;23.58;36.99;100891.03;5096138;28;19927;-72
2023/07/03 01:08:55;;;;;;;81.95;77.90;;;;;;;23.55;37.08;100887.00;5096039;28;20032;-72
2023/07/03 01:11:22;;;;;;;82.97;78.68;;;;;;;23.52;36.88;100887.66;5096378;28;20409;-70
2023/07/03 01:13:52;;;;;;;82.40;77.68;;;;;;;23.50;37.38;100882.44;5094662;28;20379;-71
2023/07/03 01:16:18;;;;;;;83.15;78.47;;;;;;;23.49;37.42;100891.88;5095975;28;20056;-73
2023/07/03 01:18:45;;;;;;;83.50;79.38;;;;;;;23.47;37.42;100885.88;5095132;28;20044;-72
2023/07/03 01:21:25;;;;;;;85.38;80.10;;;;;;;23.45;37.50;100890.09;5095837;28;20074;-72
2023/07/03 01:23:57;;;;;;;83.45;78.78;;;;;;;23.43;37.42;100887.63;5096360;28;20494;-72
2023/07/03 01:26:24;;;;;;;83.65;78.72;;;;;;;23.41;37.34;100884.41;5095735;28;20024;-71
2023/07/03 01:28:57;;;;;;;84.30;79.90;;;;;;;23.40;37.39;100893.81;5094993;28;20055;-71
2023/07/03 01:31:27;;;;;;;82.55;77.68;;;;;;;23.38;37.36;100887.81;5095444;28;20388;-72
2023/07/03 01:33:55;;;;;;;81.85;77.22;;;;;;;23.37;37.38;100879.88;5095609;28;20085;-72
2023/07/03 01:36:22;;;;;;;82.15;78.00;;;;;;;23.35;37.49;100882.16;5096370;28;20491;-71
2023/07/03 01:38:49;;;;;;;83.57;79.38;;;;;;;23.32;37.71;100878.91;5077469;28;20028;-71
2023/07/03 01:41:17;;;;;;;81.20;77.20;;;;;;;23.29;37.44;100881.50;5093979;28;20035;-72
2023/07/03 01:43:45;;;;;;;84.10;79.00;;;;;;;23.28;37.40;100875.19;5094448;28;20101;-71
2023/07/03 01:46:10;;;;;;;81.55;77.38;;;;;;;23.26;37.94;100879.41;5094228;28;20468;-71
2023/07/03 01:48:36;;;;;;;86.40;81.57;;;;;;;23.24;37.54;100870.66;5095355;28;20043;-71
2023/07/03 01:51:03;;;;;;;81.70;77.25;;;;;;;23.22;37.64;100878.44;5095259;28;20032;-72
2023/07/03 01:53:48;;;;;;;80.63;75.75;;;;;;;23.20;37.97;100872.44;5095530;28;20051;-71
2023/07/03 01:56:22;;;;;;;80.35;75.85;;;;;;;23.18;37.92;100874.69;5095487;28;20035;-71
2023/07/03 01:58:52;;;;;;;80.82;76.10;;;;;;;23.16;38.05;100880.53;5094068;28;20067;-71
2023/07/03 02:01:28;;;;;;;81.03;76.70;;;;;;;23.13;38.09;100875.66;5095054;28;20020;-70
2023/07/03 02:04:02;;;;;;;81.80;77.60;;;;;;;23.11;38.21;100870.50;5095009;28;20028;-72
2023/07/03 02:06:37;;;;;;;80.82;76.70;;;;;;;23.09;37.98;100871.94;5095367;28;20051;-71
2023/07/03 02:09:05;;;;;;;82.35;77.63;;;;;;;23.07;38.20;100875.00;5095090;28;20035;-72
2023/07/03 02:11:30;;;;;;;80.60;76.65;;;;;;;23.06;37.81;100872.59;5076974;28;20055;-72
2023/07/03 02:13:56;;;;;;;86.53;81.63;;;;;;;23.04;37.92;100875.69;5095257;28;20093;-72
2023/07/03 02:16:22;;;;;;;82.30;77.47;;;;;;;23.03;38.55;100868.56;5094018;28;20028;-72
2023/07/03 02:18:47;;;;;;;78.68;74.80;;;;;;;23.01;38.36;100867.25;5094737;28;20448;-72
2023/07/03 02:21:14;;;;;;;79.55;75.05;;;;;;;22.99;38.56;100873.06;5093908;28;20123;-71
2023/07/03 02:23:40;;;;;;;81.18;76.53;;;;;;;22.98;38.28;100870.63;5093638;28;20032;-72
2023/07/03 02:26:06;;;;;;;81.53;77.00;;;;;;;22.96;38.63;100859.94;5094062;28;20028;-72
2023/07/03 02:28:31;;;;;;;82.32;78.43;;;;;;;22.95;38.27;100865.75;5094189;28;20513;-71
2023/07/03 02:30:57;;;;;;;79.82;75.32;;;;;;;22.94;38.59;100864.13;5094400;28;20032;-71
2023/07/03 02:33:22;;;;;;;80.78;75.90;;;;;;;22.92;38.69;100860.88;5093262;28;20115;-71
2023/07/03 02:35:48;;;;;;;77.03;73.05;;;;;;;22.89;38.35;100854.09;5093767;28;20123;-71
2023/07/03 02:38:15;;;;;;;79.95;75.55;;;;;;;22.87;38.59;100864.59;5094411;28;20060;-71
2023/07/03 02:40:41;;;;;;;78.35;74.55;;;;;;;22.86;38.47;100854.75;5092749;28;20365;-71
2023/07/03 02:43:08;;;;;;;80.30;76.00;;;;;;;22.84;38.89;100857.00;5093044;28;20032;-71
2023/07/03 02:45:41;;;;;;;82.20;77.93;;;;;;;22.82;38.66;100853.75;5094361;28;20028;-72
2023/07/03 02:48:09;;;;;;;81.00;75.78;;;;;;;22.79;38.92;100852.44;5094473;28;20460;-72
2023/07/03 02:50:34;;;;;;;76.30;72.53;;;;;;;22.79;38.74;100852.44;5094235;28;20136;-70
2023/07/03 02:53:00;;;;;;;80.75;75.40;;;;;;;22.76;39.01;100858.63;5094324;28;20480;-71
2023/07/03 02:55:26;;;;;;;80.75;75.95;;;;;;;22.75;38.84;100854.22;5094125;28;20028;-71
2023/07/03 02:57:53;;;;;;;79.90;75.47;;;;;;;22.74;39.11;100849.06;5094004;28;20027;-72
2023/07/03 03:00:19;;;;;;;77.97;73.47;;;;;;;22.72;38.82;100851.31;5092710;28;20574;-72
2023/07/03 03:02:44;;;;;;;78.07;74.22;;;;;;;22.69;38.88;100844.50;5075907;28;20499;-72
2023/07/03 03:05:13;;;;;;;78.47;73.75;;;;;;;22.68;39.00;100851.16;5093959;28;20475;-72
2023/07/03 03:07:38;;;;;;;79.10;74.78;;;;;;;22.67;39.34;100860.53;5094618;28;20527;-71
2023/07/03 03:10:04;;;;;;;78.55;74.20;;;;;;;22.64;38.96;100845.47;5092575;28;20119;-72
2023/07/03 03:12:30;;;;;;;78.93;74.68;;;;;;;22.62;38.91;100853.22;5093564;28;20024;-73
2023/07/03 03:14:55;;;;;;;78.47;73.93;;;;;;;22.60;39.26;100852.75;5093043;28;20028;-72
2023/07/03 03:17:21;;;;;;;78.65;73.75;;;;;;;22.59;39.24;100842.88;5092289;28;20057;-71
2023/07/03 03:19:46;;;;;;;77.65;73.32;;;;;;;22.58;38.99;100848.69;5075548;28;20135;-72
2023/07/03 03:22:11;;;;;;;79.60;75.75;;;;;;;22.56;39.34;100845.47;5092905;28;20474;-72
2023/07/03 03:24:37;;;;;;;80.03;75.72;;;;;;;22.54;38.99;100840.28;5092781;28;20482;-72
2023/07/03 03:27:06;;;;;;;78.40;74.70;;;;;;;22.51;39.05;100840.13;5093228;28;20081;-72
2023/07/03 03:29:36;;;;;;;79.68;75.40;;;;;;;22.50;39.51;100849.47;5093706;28;20095;-72
2023/07/03 03:32:03;;;;;;;79.07;74.97;;;;;;;22.47;39.17;100849.00;5093752;28;20447;-72
2023/07/03 03:34:28;;;;;;;76.22;72.00;;;;;;;22.45;39.38;100847.69;5092352;28;20060;-72
2023/07/03 03:36:55;;;;;;;78.80;74.63;;;;;;;22.43;39.27;100845.28;5094012;28;20039;-75
2023/07/03 03:39:20;;;;;;;76.65;72.95;;;;;;;22.42;39.60;100842.81;5093199;28;20028;-70
2023/07/03 03:41:45;;;;;;;77.97;73.88;;;;;;;22.40;39.38;100847.84;5096386;28;20032;-71
2023/07/03 03:44:11;;;;;;;77.60;73.30;;;;;;;22.38;39.36;100853.69;5097696;28;20161;-71
2023/07/03 03:46:36;;;;;;;76.10;72.20;;;;;;;22.37;39.56;100854.00;5097161;28;20028;-71
2023/07/03 03:49:02;;;;;;;77.63;73.70;;;;;;;22.34;39.36;100841.69;5096299;28;20101;-71
2023/07/03 03:51:28;;;;;;;76.07;71.70;;;;;;;22.32;39.47;100841.19;5096377;28;20456;-71
2023/07/03 03:53:53;;;;;;;74.43;70.57;;;;;;;22.31;39.80;100841.53;5096361;28;20028;-71
2023/07/03 03:56:22;;;;;;;77.03;72.50;;;;;;;22.28;39.83;100840.22;5097440;28;20526;-73
2023/07/03 03:58:47;;;;;;;78.38;73.95;;;;;;;22.27;39.74;100854.28;5095945;28;20032;-71
2023/07/03 04:01:14;;;;;;;78.05;73.65;;;;;;;22.25;39.67;100843.59;5097417;28;20039;-72
2023/07/03 04:03:39;;;;;;;77.85;73.38;;;;;;;22.24;39.87;100847.47;5097123;28;20028;-72
2023/07/03 04:06:05;;;;;;;77.07;72.75;;;;;;;22.21;39.55;100848.94;5097802;28;20442;-71
2023/07/03 04:08:31;;;;;;;76.80;72.22;;;;;;;22.19;39.52;100842.94;5097255;28;20465;-72
2023/07/03 04:10:57;;;;;;;74.90;70.55;;;;;;;22.17;40.05;100845.16;5097202;28;20034;-71
2023/07/03 04:13:23;;;;;;;69.57;66.22;;;;;;;22.17;39.98;100847.09;5096780;28;20372;-72
2023/07/03 04:15:52;;;;;;;76.22;71.82;;;;;;;22.14;40.15;100844.97;5096419;28;20028;-71
2023/07/03 04:18:21;;;;;;;73.28;69.68;;;;;;;22.13;40.20;100848.88;5095583;28;20032;-72
2023/07/03 04:20:48;;;;;;;73.38;69.30;;;;;;;22.09;40.07;100848.69;5096905;28;20107;-71
2023/07/03 04:23:14;;;;;;;75.35;71.15;;;;;;;22.08;39.93;100849.03;5096377;28;20118;-71
2023/07/03 04:25:39;;;;;;;74.65;70.22;;;;;;;22.08;39.94;100854.53;5096789;28;20429;-71
2023/07/03 04:28:05;;;;;;;76.20;71.10;;;;;;;22.06;40.14;100859.53;5096877;28;20039;-71
2023/07/03 04:30:30;;;;;;;72.72;68.82;;;;;;;22.02;40.28;100857.41;5096805;28;20032;-71
2023/07/03 04:32:55;;;;;;;72.47;67.90;;;;;;;22.01;39.86;100855.78;5095398;28;20152;-71
2023/07/03 04:35:22;;;;;;;73.65;68.97;;;;;;;21.99;40.36;100852.53;5095143;28;20444;-71
2023/07/03 04:37:49;;;;;;;71.70;67.78;;;;;;;21.97;40.14;100852.06;5096523;28;20036;-71
2023/07/03 04:40:14;;;;;;;74.00;69.22;;;;;;;21.96;40.40;100855.91;5096526;28;20024;-71
2023/07/03 04:42:40;;;;;;;72.03;67.72;;;;;;;21.95;40.25;100859.81;5096507;28;20035;-71
2023/07/03 04:45:07;;;;;;;73.97;69.72;;;;;;;21.93;40.16;100859.31;5095391;28;20036;-71
2023/07/03 04:47:37;;;;;;;74.50;69.30;;;;;;;21.92;40.29;100860.41;5095142;28;20407;-72
2023/07/03 04:50:05;;;;;;;72.45;68.13;;;;;;;21.90;40.48;100865.44;5096338;28;20273;-72
2023/07/03 04:52:31;;;;;;;73.30;68.10;;;;;;;21.89;40.73;100866.56;5096268;28;20034;-71
2023/07/03 04:54:56;;;;;;;70.13;66.50;;;;;;;21.87;40.30;100863.31;5095104;28;20111;-71
2023/07/03 04:57:21;;;;;;;71.50;67.65;;;;;;;21.85;40.65;100875.75;5096456;28;20082;-71
2023/07/03 04:59:48;;;;;;;73.18;69.30;;;;;;;21.84;40.29;100872.19;5095377;28;20039;-71
2023/07/03 05:02:17;;;;;;;74.68;70.30;;;;;;;21.82;40.20;100880.78;5078091;28;20036;-71
2023/07/03 05:04:43;;;;;;;75.05;69.65;;;;;;;21.80;40.29;100872.03;5095970;28;20047;-71
2023/07/03 05:07:08;;;;;;;74.28;70.28;;;;;;;21.79;40.60;100875.06;5096749;28;20028;-71
2023/07/03 05:09:33;;;;;;;72.28;68.85;;;;;;;21.78;40.36;100871.53;5095275;28;20356;-71
2023/07/03 05:11:59;;;;;;;74.53;69.85;;;;;;;21.77;40.50;100874.56;5094873;28;20065;-71
2023/07/03 05:14:24;;;;;;;73.75;69.63;;;;;;;21.75;40.93;100871.34;5094729;28;20110;-71
2023/07/03 05:16:50;;;;;;;71.38;67.53;;;;;;;21.75;40.56;100879.59;5094634;28;20118;-71
2023/07/03 05:19:15;;;;;;;73.28;69.03;;;;;;;21.74;40.76;100877.97;5094664;28;20078;-70
2023/07/03 05:21:41;;;;;;;71.68;67.63;;;;;;;21.73;40.97;100881.84;5095868;28;20032;-70
2023/07/03 05:24:06;;;;;;;71.53;67.97;;;;;;;21.71;40.76;100879.41;5094850;28;20077;-70
2023/07/03 05:26:32;;;;;;;72.97;69.18;;;;;;;21.70;40.57;100882.47;5096016;28;20028;-70
2023/07/03 05:28:57;;;;;;;73.93;69.85;;;;;;;21.70;40.70;100887.97;5095823;28;20036;-70
2023/07/03 05:31:23;;;;;;;74.28;69.45;;;;;;;21.67;40.94;100891.34;5095217;28;20418;-71
2023/07/03 05:33:50;;;;;;;69.28;65.65;;;;;;;21.65;41.08;100891.66;5095539;28;20108;-71
2023/07/03 05:36:15;;;;;;;72.25;68.22;;;;;;;21.66;40.81;100892.47;5094587;28;20354;-71
2023/07/03 05:38:40;;;;;;;70.63;66.38;;;;;;;21.65;40.63;100899.09;5095678;28;20054;-72
2023/07/03 05:41:06;;;;;;;72.03;68.20;;;;;;;21.63;40.74;100890.34;5094643;28;20077;-72
2023/07/03 05:43:31;;;;;;;71.35;66.72;;;;;;;21.62;41.21;100897.81;5095103;28;20114;-72
2023/07/03 05:45:57;;;;;;;70.45;66.38;;;;;;;21.61;41.05;100896.97;5095386;28;20025;-71
2023/07/03 05:48:23;;;;;;;71.90;67.70;;;;;;;21.60;40.78;100895.34;5095774;28;20056;-72
2023/07/03 05:50:49;;;;;;;71.90;67.55;;;;;;;21.61;40.92;100901.66;5094450;28;20028;-71
2023/07/03 05:53:14;;;;;;;71.55;67.70;;;;;;;21.59;41.41;100904.69;5095193;28;20430;-71
2023/07/03 05:55:40;;;;;;;75.07;70.35;;;;;;;21.58;41.48;100900.34;5095645;28;20036;-71
2023/07/03 05:58:05;;;;;;;72.43;67.60;;;;;;;21.56;40.95;100897.09;5094108;28;20476;-71
2023/07/03 06:00:31;;;;;;;68.60;65.10;;;;;;;21.56;41.52;100894.34;5094830;28;20028;-71
2023/07/03 06:02:58;;;;;;;69.35;65.85;;;;;;;21.56;41.53;100899.84;5094380;28;20059;-72
2023/07/03 06:05:24;;;;;;;68.68;65.10;;;;;;;21.55;41.28;100903.72;5094907;28;20052;-72
2023/07/03 06:07:50;;;;;;;67.75;63.67;;;;;;;21.53;40.96;100897.72;5094986;28;20430;-72
2023/07/03 06:10:15;;;;;;;72.68;68.78;;;;;;;21.53;41.31;100903.22;5094884;28;20042;-71
2023/07/03 06:12:41;;;;;;;71.65;67.43;;;;;;;21.53;41.06;100911.47;5093726;28;20032;-71
2023/07/03 06:15:07;;;;;;;71.05;67.07;;;;;;;21.52;41.11;100898.84;5095072;28;20028;-71
2023/07/03 06:17:33;;;;;;;68.63;64.55;;;;;;;21.51;41.05;100891.72;5094839;28;20047;-71
2023/07/03 06:19:58;;;;;;;69.65;65.80;;;;;;;21.51;41.51;100897.22;5094691;28;20038;-72
2023/07/03 06:22:24;;;;;;;70.82;66.75;;;;;;;21.51;41.50;100899.97;5094658;28;20043;-72
2023/07/03 06:24:49;;;;;;;67.25;63.92;;;;;;;21.50;41.14;100898.34;5094593;28;20361;-71
2023/07/03 06:27:15;;;;;;;72.03;68.05;;;;;;;21.49;41.70;100898.66;5076517;28;20495;-72
2023/07/03 06:29:41;;;;;;;70.72;66.80;;;;;;;21.49;41.16;100896.72;5094157;28;20036;-73
2023/07/03 06:32:09;;;;;;;70.72;66.50;;;;;;;21.48;41.51;100886.84;5094284;28;20035;-71
2023/07/03 06:34:35;;;;;;;69.53;65.90;;;;;;;21.47;41.68;100893.50;5093949;28;20032;-73
2023/07/03 06:37:02;;;;;;;68.65;64.63;;;;;;;21.48;41.40;100899.78;5092977;28;20112;-73
2023/07/03 06:39:29;;;;;;;68.47;65.03;;;;;;;21.47;41.26;100903.66;5093948;28;20032;-73
2023/07/03 06:41:55;;;;;;;70.95;67.25;;;;;;;21.46;41.33;100902.03;5092810;28;20039;-71
2023/07/03 06:44:20;;;;;;;70.03;66.28;;;;;;;21.46;41.61;100904.78;5093931;28;20032;-71
2023/07/03 06:46:46;;;;;;;67.03;63.58;;;;;;;21.46;41.60;100910.28;5094479;28;20039;-71
2023/07/03 06:49:12;;;;;;;70.40;66.45;;;;;;;21.45;41.69;100914.97;5094005;28;20422;-72
2023/07/03 06:51:38;;;;;;;69.38;65.43;;;;;;;21.44;41.33;100916.06;5093496;28;20392;-71
2023/07/03 06:54:04;;;;;;;68.20;64.80;;;;;;;21.45;41.35;100919.66;5092596;28;20035;-71
2023/07/03 06:56:29;;;;;;;70.60;66.60;;;;;;;21.44;41.46;100921.56;5093161;28;20031;-71
2023/07/03 06:58:55;;;;;;;69.80;66.18;;;;;;;21.45;41.73;100922.41;5092435;28;20506;-71
2023/07/03 07:01:24;;;;;;;69.82;65.72;;;;;;;21.44;41.41;100923.50;5093802;28;20092;-72
2023/07/03 07:03:50;;;;;;;69.03;64.93;;;;;;;21.43;41.40;100916.41;5093380;28;20032;-72
2023/07/03 07:06:19;;;;;;;69.57;65.60;;;;;;;21.44;41.40;100920.75;5093648;28;20055;-71
2023/07/03 07:08:44;;;;;;;;;;;;;;;21.43;41.43;100917.22;5094215;28;20412;-72
2023/07/03 07:11:16;;;;;;;64.50;61.13;;;;;;;21.43;41.67;100908.16;5092012;28;19935;-71
2023/07/03 07:13:44;;;;;;;65.07;61.88;;;;;;;21.42;41.73;100912.84;5093007;28;20070;-71
2023/07/03 07:16:14;;;;;;;67.13;63.45;;;;;;;21.42;41.85;100910.09;5093799;28;20483;-72
2023/07/03 07:18:40;;;;;;;67.47;64.10;;;;;;;21.43;41.44;100921.91;5092879;28;20372;-72
2023/07/03 07:21:06;;;;;;;68.63;64.35;;;;;;;21.42;41.60;100923.84;5093267;28;20039;-74
2023/07/03 07:23:31;;;;;;;70.28;66.07;;;;;;;21.43;41.48;100919.97;5093269;28;20372;-72
2023/07/03 07:25:57;;;;;;;67.63;64.03;;;;;;;21.45;41.71;100916.91;5092778;28;20039;-71
2023/07/03 07:28:22;;;;;;;69.88;66.43;;;;;;;21.45;41.37;100925.16;5092010;28;20035;-72
2023/07/03 07:30:48;;;;;;;67.85;64.28;;;;;;;21.45;41.52;100914.16;5093066;28;20368;-71
2023/07/03 07:33:14;;;;;;;69.18;65.07;;;;;;;21.46;41.73;100926.75;5093044;28;20097;-71
2023/07/03 07:35:41;;;;;;;69.50;65.65;;;;;;;21.46;41.69;100926.75;5091909;28;20482;-71
2023/07/03 07:38:07;;;;;;;69.28;65.47;;;;;;;21.47;42.07;100929.22;5092859;28;20490;-71
2023/07/03 07:40:32;;;;;;;69.75;66.25;;;;;;;21.49;42.10;100928.88;5091574;28;20032;-72
2023/07/03 07:42:58;;;;;;;69.32;65.40;;;;;;;21.51;41.53;100929.38;5091965;28;20047;-71
2023/07/03 07:45:23;;;;;;;70.97;67.20;;;;;;;21.52;41.53;100931.00;5093413;28;20032;-71
2023/07/03 07:47:49;;;;;;;69.40;65.82;;;;;;;21.53;41.90;100935.41;5093161;28;20093;-71
2023/07/03 07:50:14;;;;;;;70.20;66.15;;;;;;;21.55;41.51;100930.41;5093166;28;20035;-72
2023/07/03 07:52:39;;;;;;;69.40;65.68;;;;;;;21.55;41.92;100947.69;5092737;28;20031;-71
2023/07/03 07:55:05;;;;;;;71.18;67.63;;;;;;;21.56;41.55;100943.00;5093183;28;20485;-72
2023/07/03 07:57:31;;;;;;;71.07;67.53;;;;;;;21.58;41.99;100951.75;5092513;28;20028;-71
2023/07/03 07:59:56;;;;;;;69.70;65.80;;;;;;;21.59;41.41;100947.88;5092698;28;20028;-71
2023/07/03 08:02:22;;;;;;;68.68;65.30;;;;;;;21.60;41.86;100944.03;5092763;28;20456;-71
2023/07/03 08:04:47;;;;;;;71.97;67.97;;;;;;;21.61;41.78;100951.94;5091286;28;20467;-70
2023/07/03 08:07:13;;;;;;;67.93;64.50;;;;;;;21.63;41.89;100953.59;5091413;28;20468;-71
2023/07/03 08:09:38;;;;;;;69.07;65.70;;;;;;;21.65;41.31;100963.13;5092635;28;20210;-74
2023/07/03 08:12:05;;;;;;;69.85;66.40;;;;;;;21.67;41.74;100968.31;5092006;28;20036;-73
2023/07/03 08:14:30;;;;;;;71.68;67.28;;;;;;;21.67;41.58;100974.66;5092477;28;20028;-73
2023/07/03 08:16:56;;;;;;;71.63;67.80;;;;;;;21.68;41.63;100970.75;5092819;28;20043;-72
2023/07/03 08:19:22;;;;;;;70.60;67.00;;;;;;;21.70;41.43;100981.44;5092455;28;20039;-73
2023/07/03 08:21:47;;;;;;;72.45;68.07;;;;;;;21.71;41.17;100977.56;5074588;28;20032;-73
2023/07/03 08:24:13;;;;;;;69.15;64.80;;;;;;;21.72;41.45;100965.44;5091907;28;20036;-73
2023/07/03 08:26:38;;;;;;;70.53;67.05;;;;;;;21.73;41.44;100973.38;5093588;28;20051;-75
2023/07/03 08:29:03;;;;;;;71.70;67.90;;;;;;;21.75;41.22;100971.13;5096640;28;20391;-72
2023/07/03 08:31:29;;;;;;;72.85;68.80;;;;;;;21.75;41.63;100965.63;5096376;28;20035;-72
2023/07/03 08:33:55;;;;;;;69.07;65.88;;;;;;;21.77;41.21;100965.31;5095860;28;20028;-73
2023/07/03 08:36:21;;;;;;;71.03;67.22;;;;;;;21.77;41.63;100957.91;5096673;28;20158;-74
2023/07/03 08:38:47;;;;;;;70.03;66.20;;;;;;;21.79;41.01;100957.56;5096079;28;20111;-73
2023/07/03 08:41:13;;;;;;;70.05;66.43;;;;;;;21.80;41.53;100960.00;5096233;28;20116;-73
2023/07/03 08:43:42;;;;;;;71.30;67.55;;;;;;;21.81;41.44;100969.06;5077795;28;20456;-71
2023/07/03 08:46:13;;;;;;;69.38;66.13;;;;;;;21.83;41.53;100966.81;5096038;28;20028;-74
2023/07/03 08:48:41;;;;;;;70.82;67.43;;;;;;;21.84;41.53;100960.19;5096221;28;20036;-74
2023/07/03 08:51:14;;;;;;;70.68;66.03;;;;;;;21.85;41.13;100966.50;5095922;28;20048;-72
2023/07/03 08:53:42;;;;;;;72.95;69.13;;;;;;;21.86;41.37;100960.69;5096244;28;20141;-73
2023/07/03 08:56:15;;;;;;;70.68;67.28;;;;;;;21.87;41.33;100962.31;5095910;28;20032;-73
2023/07/03 08:58:41;;;;;;;73.32;69.35;;;;;;;21.89;41.45;100960.06;5095893;28;20028;-72
2023/07/03 09:01:15;;;;;;;73.47;69.32;;;;;;;21.90;41.06;100963.63;5095324;28;20039;-72
2023/07/03 09:04:07;;;;;;;74.00;70.10;;;;;;;21.91;41.29;100974.31;5095910;28;20095;-72
2023/07/03 09:07:14;;;;;;;75.07;70.50;;;;;;;21.93;41.31;100968.50;5091223;28;20052;-73
2023/07/03 09:09:47;;;;;;;72.57;68.57;;;;;;;21.94;41.55;100970.94;5052809;28;20029;-71
2023/07/03 09:12:28;;;;;;;73.10;69.00;;;;;;;21.96;41.08;100976.13;5090748;28;20267;-70
2023/07/03 09:15:09;;;;;;;71.07;67.57;;;;;;;21.97;41.13;100967.56;5095527;28;20464;-71
2023/07/03 09:17:37;;;;;;;72.60;68.70;;;;;;;21.98;41.32;100969.19;5094999;28;20054;-71
2023/07/03 09:20:05;;;;;;;72.07;68.15;;;;;;;21.99;41.09;100978.25;5095330;28;20031;-71
2023/07/03 09:22:33;;;;;;;76.30;71.90;;;;;;;22.02;41.39;100983.09;5095392;28;20059;-71
2023/07/03 09:25:02;;;;;;;73.20;68.90;;;;;;;22.02;41.00;100972.09;5095382;28;20111;-71
2023/07/03 09:27:28;;;;;;;74.15;69.72;;;;;;;22.03;40.85;100980.06;5094655;28;20035;-71
2023/07/03 09:30:03;;;;;;;72.88;69.32;;;;;;;22.04;41.18;100976.16;5095790;28;20040;-71
2023/07/03 09:32:30;;;;;;;74.50;71.10;;;;;;;22.06;41.19;100972.31;5094261;28;20039;-72
2023/07/03 09:35:10;;;;;;;74.38;70.78;;;;;;;22.08;41.01;100972.81;5095385;28;20111;-71
2023/07/03 09:37:41;;;;;;;76.25;72.45;;;;;;;22.08;40.98;100976.38;5094617;28;20028;-72
2023/07/03 09:40:12;;;;;;;70.28;67.15;;;;;;;22.09;40.77;100974.41;5094648;28;20115;-72
2023/07/03 09:42:40;;;;;;;72.05;68.45;;;;;;;22.11;41.11;100969.41;5094965;28;20073;-71
2023/07/03 09:45:17;;;;;;;74.50;70.35;;;;;;;22.12;41.14;100974.59;5093952;28;20035;-72
2023/07/03 09:47:57;;;;;;;75.03;70.57;;;;;;;22.14;40.77;100986.09;5094598;28;20460;-71
2023/07/03 09:50:27;;;;;;;72.05;68.55;;;;;;;22.15;40.80;100986.91;5093394;28;20039;-71
2023/07/03 09:52:57;;;;;;;71.28;67.85;;;;;;;22.17;40.81;100987.41;5095218;28;20031;-72
2023/07/03 09:55:24;;;;;;;72.28;68.68;;;;;;;22.18;40.97;100989.06;5095029;28;20107;-71
2023/07/03 09:57:50;;;;;;;74.40;70.53;;;;;;;22.19;40.79;100982.41;5093244;28;20035;-73
2023/07/03 10:00:19;;;;;;;73.82;69.97;;;;;;;22.22;40.86;100987.31;5093851;28;20036;-73
2023/07/03 10:02:45;;;;;;;74.97;71.30;;;;;;;22.24;40.59;100977.59;5094854;28;20048;-71
2023/07/03 10:05:16;;;;;;;73.10;69.75;;;;;;;22.26;40.20;100971.81;5094415;28;20442;-76
2023/07/03 10:07:44;;;;;;;76.05;71.90;;;;;;;22.27;40.19;100981.66;5094141;28;20426;-72
2023/07/03 10:10:14;;;;;;;70.97;67.80;;;;;;;22.28;40.58;100971.50;5094512;28;20120;-72
2023/07/03 10:13:12;;;;;;;76.13;71.10;;;;;;;22.31;40.08;100979.91;5094256;28;20113;-74
2023/07/03 10:15:41;;;;;;;73.38;69.75;;;;;;;22.34;40.64;100992.22;5094598;28;20043;-72
2023/07/03 10:18:24;;;;;;;72.13;68.70;;;;;;;22.37;40.04;100994.34;5094068;28;20050;-73
2023/07/03 10:20:51;;;;;;;75.63;72.18;;;;;;;22.40;40.12;101011.06;5094563;28;20093;-72
2023/07/03 10:23:21;;;;;;;75.20;71.40;;;;;;;22.43;40.04;101007.66;5094051;28;20032;-72
2023/07/03 10:25:53;;;;;;;75.82;71.90;;;;;;;22.45;39.98;101008.16;5093976;28;20043;-72
2023/07/03 10:28:23;;;;;;;74.68;70.97;;;;;;;22.49;39.70;101008.34;5095225;28;20028;-71
2023/07/03 10:30:55;;;;;;;76.55;73.05;;;;;;;22.53;39.84;101012.09;5093967;28;20024;-71
2023/07/03 10:33:26;;;;;;;77.22;73.38;;;;;;;22.57;40.03;101015.00;5094338;28;20028;-71
2023/07/03 10:35:53;;;;;;;75.97;71.97;;;;;;;22.61;39.62;101016.81;5094523;28;20153;-72
2023/07/03 10:38:40;;;;;;;78.40;74.47;;;;;;;22.63;39.38;101009.06;5094045;28;20066;-71
2023/07/03 10:41:14;;;;;;;75.82;72.32;;;;;;;22.67;39.21;101004.50;5094480;28;20042;-72
2023/07/03 10:43:52;;;;;;;77.65;73.70;;;;;;;22.69;39.57;101002.25;5094499;28;20024;-72
2023/07/03 10:46:39;;;;;;;77.60;73.57;;;;;;;22.73;39.49;101005.22;5093917;28;20055;-72
2023/07/03 10:49:11;;;;;;;76.23;72.63;;;;;;;22.76;39.73;101001.00;5093640;28;20105;-72
2023/07/03 10:51:55;;;;;;;77.90;73.88;;;;;;;22.79;39.83;101006.69;5093729;28;20384;-73
2023/07/03 10:54:29;;;;;;;75.75;72.20;;;;;;;22.82;39.32;101003.28;5093845;28;20020;-71
2023/07/03 10:56:57;;;;;;;77.28;73.43;;;;;;;22.85;39.08;101010.09;5093268;28;20031;-72
2023/07/03 10:59:27;;;;;;;;;;;;;;;22.88;39.46;101004.78;5093936;28;20020;-72
2023/07/03 11:02:22;;;;;;;75.28;71.40;;;;;;;22.90;39.36;101008.00;5093411;28;19912;-71
2023/07/03 11:05:15;;;;;;;77.68;73.38;;;;;;;22.93;39.04;101008.50;5092027;28;20425;-71
2023/07/03 11:07:52;;;;;;;79.75;74.95;;;;;;;22.96;39.27;101016.94;5093670;28;20027;-71
2023/07/03 11:10:33;;;;;;;77.97;73.97;;;;;;;22.99;39.08;101010.81;5093090;28;20039;-75
2023/07/03 11:13:05;;;;;;;78.30;74.82;;;;;;;23.03;39.29;101002.72;5093279;28;20043;-72